Time;durP1;ratioP1;P1;durP2;ratioP2;P2;SDS_P1;SDS_P2;PMS_P1;PMS_P2;Temp;Humidity;BMP_temperature;BMP_pressure;BME280_temperature;BME280_humidity;BME280_pressure;Samples;Min_cycle;Max_cycle;Signal;HPM_P1;HPM_P2
2022/03/03 00:01:59;;;;;;;5.90;4.23;;;;;;;0.53;75.74;96543.16;5036348;28;20236;-73
2022/03/03 00:04:26;;;;;;;4.97;3.57;;;;;;;0.30;75.32;96543.16;5035937;28;20197;-73
2022/03/03 00:06:52;;;;;;;5.27;3.80;;;;;;;0.36;75.32;96548.72;5036322;28;20582;-73
2022/03/03 00:09:18;;;;;;;8.27;3.50;;;;;;;0.16;75.59;96551.06;5035831;28;20216;-73
2022/03/03 00:11:45;;;;;;;6.33;3.43;;;;;;;0.26;76.49;96554.66;5035649;28;20227;-74
2022/03/03 00:14:13;;;;;;;10.07;4.73;;;;;;;0.21;77.56;96547.22;5035249;28;20951;-73
2022/03/03 00:16:40;;;;;;;6.93;3.00;;;;;;;0.19;77.48;96545.66;5035576;28;20208;-73
2022/03/03 00:19:06;;;;;;;4.83;2.77;;;;;;;0.29;75.68;96534.53;5035951;28;20236;-73
2022/03/03 00:21:33;;;;;;;7.53;2.63;;;;;;;0.34;76.51;96531.63;5035026;28;20228;-73
2022/03/03 00:23:59;;;;;;;4.60;3.03;;;;;;;0.18;77.63;96528.47;5034778;28;20213;-73
2022/03/03 00:26:26;;;;;;;16.10;4.27;;;;;;;0.14;76.54;96535.63;5035662;28;20197;-73
2022/03/03 00:28:52;;;;;;;2.60;2.00;;;;;;;0.21;76.25;96538.63;5035495;28;20693;-73
2022/03/03 00:31:20;;;;;;;4.40;2.93;;;;;;;0.32;76.04;96544.69;5035897;28;20212;-73
2022/03/03 00:33:47;;;;;;;3.83;2.23;;;;;;;0.17;76.33;96548.34;5034858;28;20605;-73
2022/03/03 00:36:13;;;;;;;6.73;5.33;;;;;;;0.26;75.75;96546.91;5035645;28;20578;-73
2022/03/03 00:38:39;;;;;;;12.07;3.50;;;;;;;0.05;76.18;96536.28;5036028;28;20225;-72
2022/03/03 00:41:06;;;;;;;2.27;2.07;;;;;;;-0.20;77.86;96538.06;5035191;28;20204;-73
2022/03/03 00:43:32;;;;;;;4.17;3.10;;;;;;;-0.01;76.85;96541.88;5034554;28;20208;-73
2022/03/03 00:45:59;;;;;;;4.87;3.83;;;;;;;-0.10;77.26;96535.66;5035336;28;20201;-73
2022/03/03 00:48:27;;;;;;;7.27;4.30;;;;;;;0.19;76.90;96527.53;5035452;28;20203;-72
2022/03/03 00:50:53;;;;;;;8.77;3.93;;;;;;;0.13;76.76;96526.19;5035780;28;20489;-72
2022/03/03 00:53:20;;;;;;;9.10;4.20;;;;;;;0.07;76.55;96518.84;5034436;28;20232;-72
2022/03/03 00:55:46;;;;;;;9.63;3.00;;;;;;;-0.06;76.78;96519.81;5035534;28;20495;-73
2022/03/03 00:58:13;;;;;;;4.03;2.23;;;;;;;0.10;75.95;96516.06;5035550;28;20205;-73
2022/03/03 01:00:39;;;;;;;4.47;2.80;;;;;;;0.11;74.97;96515.09;5035279;28;20216;-73
2022/03/03 01:03:06;;;;;;;5.40;2.87;;;;;;;0.05;75.21;96512.97;5035087;28;20220;-73
2022/03/03 01:05:34;;;;;;;3.20;2.47;;;;;;;0.11;74.75;96512.50;5035585;28;20589;-72
2022/03/03 01:08:00;;;;;;;11.70;3.50;;;;;;;-0.05;74.56;96515.47;5035278;28;20205;-73
2022/03/03 01:10:27;;;;;;;6.07;2.60;;;;;;;-0.09;75.57;96508.84;5035601;28;20205;-73
2022/03/03 01:12:53;;;;;;;2.97;2.07;;;;;;;-0.03;75.80;96503.25;5039801;28;20228;-72
2022/03/03 01:15:20;;;;;;;7.20;4.00;;;;;;;0.06;75.74;96498.22;5039519;28;20220;-72
2022/03/03 01:17:46;;;;;;;2.80;2.50;;;;;;;-0.19;76.61;96502.63;5038872;28;20209;-72
2022/03/03 01:20:13;;;;;;;11.43;3.77;;;;;;;-0.14;75.83;96487.63;5039926;28;20205;-72
2022/03/03 01:22:40;;;;;;;3.83;2.13;;;;;;;0.08;76.15;96486.81;5038607;28;20229;-73
2022/03/03 01:25:08;;;;;;;5.43;3.30;;;;;;;-0.10;76.23;96489.06;5038616;28;20461;-73
2022/03/03 01:27:34;;;;;;;3.50;2.57;;;;;;;-0.22;75.93;96488.13;5039334;28;20204;-72
2022/03/03 01:30:02;;;;;;;2.77;2.40;;;;;;;-0.18;75.95;96493.94;5039171;28;20212;-73
2022/03/03 01:32:29;;;;;;;2.80;2.00;;;;;;;-0.14;76.41;96496.22;5037787;28;20733;-72
2022/03/03 01:34:55;;;;;;;4.13;3.00;;;;;;;-0.19;76.86;96489.69;5038738;28;20717;-72
2022/03/03 01:37:22;;;;;;;3.57;2.67;;;;;;;-0.53;78.15;96487.78;5039146;28;20201;-73
2022/03/03 01:39:50;;;;;;;3.47;2.53;;;;;;;-0.33;78.41;96488.06;5038612;28;20217;-73
2022/03/03 01:42:17;;;;;;;3.33;2.50;;;;;;;-0.41;77.39;96487.78;5038626;28;20228;-73
2022/03/03 01:44:44;;;;;;;3.27;2.87;;;;;;;-0.36;76.95;96484.84;5039481;28;20669;-73
2022/03/03 01:47:17;;;;;;;2.97;2.60;;;;;;;-0.19;77.29;96487.09;5039132;28;20200;-73
2022/03/03 01:49:43;;;;;;;2.30;1.90;;;;;;;-0.50;78.02;96482.38;5039007;28;20292;-72
2022/03/03 01:52:10;;;;;;;3.17;2.83;;;;;;;-0.63;77.81;96475.59;5039123;28;20262;-73
2022/03/03 01:54:36;;;;;;;4.60;2.37;;;;;;;-0.56;77.51;96477.63;5038703;28;20227;-72
2022/03/03 01:57:05;;;;;;;8.23;2.87;;;;;;;-0.79;78.11;96480.97;5038838;28;20207;-73
2022/03/03 01:59:32;;;;;;;3.63;2.63;;;;;;;-0.98;79.62;96485.72;5039255;28;20540;-72
2022/03/03 02:01:59;;;;;;;10.83;3.67;;;;;;;-1.04;78.24;96488.69;5038968;28;21095;-72
2022/03/03 02:04:25;;;;;;;4.47;3.33;;;;;;;-0.92;77.31;96495.63;5038279;28;20201;-72
2022/03/03 02:06:51;;;;;;;4.67;2.07;;;;;;;-0.81;78.10;96490.56;5038578;28;20224;-73
2022/03/03 02:09:18;;;;;;;6.43;3.07;;;;;;;-0.87;79.07;96480.63;5039116;28;20197;-73
2022/03/03 02:11:46;;;;;;;3.93;2.77;;;;;;;-0.66;78.88;96479.19;5038894;28;20318;-73
2022/03/03 02:14:14;;;;;;;4.13;3.03;;;;;;;-0.60;78.27;96473.59;5038279;28;20224;-72
2022/03/03 02:16:41;;;;;;;3.07;2.47;;;;;;;-0.79;76.44;96480.97;5038669;28;20232;-73
2022/03/03 02:19:08;;;;;;;4.60;3.27;;;;;;;-0.83;78.54;96473.50;5038804;28;20673;-72
2022/03/03 02:21:36;;;;;;;3.13;2.27;;;;;;;-0.91;79.50;96460.25;5037819;28;20220;-72
2022/03/03 02:24:03;;;;;;;5.67;3.87;;;;;;;-0.91;79.83;96455.09;5038343;28;20216;-73
2022/03/03 02:26:31;;;;;;;4.33;3.77;;;;;;;-0.87;78.83;96457.34;5038513;28;20911;-72
2022/03/03 02:28:57;;;;;;;4.33;3.33;;;;;;;-0.79;78.52;96468.03;5038477;28;20209;-72
2022/03/03 02:31:24;;;;;;;4.30;3.27;;;;;;;-0.69;77.72;96471.63;5038685;28;20221;-72
2022/03/03 02:33:50;;;;;;;3.77;3.33;;;;;;;-0.70;78.83;96469.16;5038121;28;20503;-72
2022/03/03 02:36:18;;;;;;;5.67;3.63;;;;;;;-0.56;78.46;96462.09;5038254;28;20239;-72
2022/03/03 02:38:46;;;;;;;3.57;2.93;;;;;;;-0.51;77.68;96460.03;5038811;28;20201;-73
2022/03/03 02:41:13;;;;;;;2.53;2.33;;;;;;;-0.61;77.65;96459.84;5038128;28;20204;-73
2022/03/03 02:43:39;;;;;;;2.80;1.47;;;;;;;-0.68;78.01;96454.38;5037259;28;20224;-72
2022/03/03 02:46:07;;;;;;;8.30;3.33;;;;;;;-0.58;77.25;96453.63;5038762;28;20200;-72
2022/03/03 02:48:34;;;;;;;7.47;3.03;;;;;;;-0.63;76.74;96452.28;5038148;28;20208;-72
2022/03/03 02:51:01;;;;;;;2.00;1.83;;;;;;;-0.61;76.43;96446.09;5037706;28;20216;-73
2022/03/03 02:53:27;;;;;;;9.37;2.97;;;;;;;-0.94;75.71;96450.94;5037798;28;20487;-72
2022/03/03 02:55:55;;;;;;;5.50;3.13;;;;;;;-0.87;77.39;96444.41;5040493;28;20235;-73
2022/03/03 02:58:22;;;;;;;11.17;3.73;;;;;;;-1.06;78.63;96445.75;5047163;28;20408;-73
2022/03/03 03:00:48;;;;;;;3.43;2.60;;;;;;;-0.89;78.26;96442.88;5047496;28;20208;-74
2022/03/03 03:03:16;;;;;;;7.03;4.40;;;;;;;-0.89;77.95;96443.72;5047921;28;20217;-73
2022/03/03 03:05:43;;;;;;;7.50;3.63;;;;;;;-1.04;77.63;96444.72;5048109;28;20205;-74
2022/03/03 03:08:10;;;;;;;1.77;1.60;;;;;;;-0.98;76.95;96451.25;5047090;28;20212;-74
2022/03/03 03:10:37;;;;;;;3.63;2.87;;;;;;;-1.20;78.48;96448.44;5047428;28;20621;-74
2022/03/03 03:13:07;;;;;;;3.73;3.10;;;;;;;-1.13;79.20;96453.09;5046636;28;20232;-73
2022/03/03 03:15:34;;;;;;;3.90;3.50;;;;;;;-1.08;78.70;96453.63;5046939;28;20229;-73
2022/03/03 03:18:09;;;;;;;1.00;1.00;;;;;;;-0.92;77.65;96456.81;5046793;28;20220;-73
2022/03/03 03:20:35;;;;;;;3.00;2.70;;;;;;;-1.17;78.04;96459.41;5046121;28;20233;-72
2022/03/03 03:23:02;;;;;;;4.87;2.43;;;;;;;-1.34;79.60;96461.44;5045871;28;20733;-74
2022/03/03 03:25:28;;;;;;;3.73;3.30;;;;;;;-1.18;79.17;96462.91;5047686;28;20197;-73
2022/03/03 03:27:55;;;;;;;2.33;1.43;;;;;;;-1.19;78.58;96460.44;5042728;28;20209;-73
2022/03/03 03:30:22;;;;;;;4.70;3.47;;;;;;;-1.10;77.85;96460.66;5045964;28;20204;-73
2022/03/03 03:32:49;;;;;;;1.63;1.53;;;;;;;-1.50;78.02;96454.78;5045515;28;20232;-74
2022/03/03 03:35:15;;;;;;;10.07;4.90;;;;;;;-1.28;76.87;96448.13;5045635;28;20244;-72
2022/03/03 03:37:42;;;;;;;7.00;3.67;;;;;;;-1.32;76.39;96446.69;5044528;28;20205;-72
2022/03/03 03:40:09;;;;;;;5.67;2.77;;;;;;;-1.22;76.54;96442.56;5045652;28;20768;-73
2022/03/03 03:42:36;;;;;;;4.70;3.17;;;;;;;-1.34;77.26;96445.94;5045388;28;20229;-74
2022/03/03 03:45:04;;;;;;;2.63;2.43;;;;;;;-1.23;77.93;96449.47;5045238;28;20573;-72
2022/03/03 03:47:32;;;;;;;8.60;3.10;;;;;;;-1.13;78.20;96440.19;5046158;28;20216;-73
2022/03/03 03:50:02;;;;;;;2.57;2.37;;;;;;;-1.32;77.96;96448.41;5045672;28;20201;-73
2022/03/03 03:52:28;;;;;;;5.23;2.90;;;;;;;-1.22;77.87;96448.53;5045434;28;20227;-74
2022/03/03 03:54:55;;;;;;;5.17;3.00;;;;;;;-1.34;78.73;96448.50;5046003;28;20646;-74
2022/03/03 03:57:21;;;;;;;7.70;3.27;;;;;;;-1.44;78.95;96450.06;5047016;28;20211;-72
2022/03/03 03:59:48;;;;;;;3.20;2.20;;;;;;;-1.34;77.71;96452.88;5045671;28;20202;-72
2022/03/03 04:02:14;;;;;;;4.77;2.40;;;;;;;-1.28;76.49;96452.47;5043876;28;20217;-74
2022/03/03 04:04:42;;;;;;;5.37;3.00;;;;;;;-1.22;76.51;96439.97;5044303;28;20209;-73
2022/03/03 04:07:08;;;;;;;5.53;3.20;;;;;;;-1.49;77.32;96444.38;5044361;28;20204;-73
2022/03/03 04:09:35;;;;;;;4.63;3.40;;;;;;;-1.46;76.89;96445.94;5044343;28;20204;-72
2022/03/03 04:12:02;;;;;;;6.57;2.77;;;;;;;-1.46;77.62;96451.09;5044374;28;20233;-73
2022/03/03 04:14:29;;;;;;;3.23;2.80;;;;;;;-1.39;77.05;96444.59;5043788;28;20219;-73
2022/03/03 04:16:55;;;;;;;7.53;2.73;;;;;;;-1.43;76.41;96443.94;5041848;28;20674;-72
2022/03/03 04:19:22;;;;;;;2.97;1.83;;;;;;;-1.52;76.56;96441.16;5042443;28;20209;-72
2022/03/03 04:21:50;;;;;;;13.07;3.80;;;;;;;-1.64;77.23;96453.13;5043200;28;20691;-74
2022/03/03 04:24:16;;;;;;;2.57;1.47;;;;;;;-1.74;76.96;96451.22;5041903;28;20231;-74
2022/03/03 04:26:43;;;;;;;2.80;2.43;;;;;;;-1.58;76.60;96452.72;5043653;28;20197;-73
2022/03/03 04:29:09;;;;;;;5.63;3.87;;;;;;;-1.66;77.05;96452.38;5041770;28;20456;-74
2022/03/03 04:31:36;;;;;;;3.87;2.93;;;;;;;-1.69;76.98;96455.16;5043118;28;20233;-74
2022/03/03 04:34:02;;;;;;;2.30;2.10;;;;;;;-1.78;77.29;96447.19;5042065;28;20205;-74
2022/03/03 04:36:29;;;;;;;3.57;2.67;;;;;;;-1.92;77.78;96449.81;5043701;28;20248;-72
2022/03/03 04:38:57;;;;;;;13.60;3.40;;;;;;;-1.87;78.83;96434.88;5043212;28;20205;-72
2022/03/03 04:41:23;;;;;;;4.43;2.10;;;;;;;-1.92;77.46;96431.75;5043053;28;20201;-72
2022/03/03 04:43:50;;;;;;;3.13;2.77;;;;;;;-1.95;77.26;96436.25;5039099;28;20204;-74
2022/03/03 04:46:16;;;;;;;4.83;2.70;;;;;;;-1.81;76.76;96427.53;5042284;28;20241;-73
2022/03/03 04:48:43;;;;;;;4.60;2.43;;;;;;;-1.77;77.63;96426.41;5041897;28;21021;-73
2022/03/03 04:51:09;;;;;;;1.67;1.57;;;;;;;-1.67;78.87;96429.22;5041921;28;20206;-73
2022/03/03 04:53:36;;;;;;;2.80;2.57;;;;;;;-1.57;78.48;96425.13;5042910;28;20209;-74
2022/03/03 04:56:04;;;;;;;3.20;2.90;;;;;;;-1.65;77.88;96429.97;5043390;28;20243;-73
2022/03/03 04:58:31;;;;;;;4.03;3.03;;;;;;;-1.68;76.65;96435.31;5041479;28;20201;-73
2022/03/03 05:00:58;;;;;;;5.83;3.20;;;;;;;-1.74;77.12;96425.41;5041262;28;20205;-72
2022/03/03 05:03:24;;;;;;;6.27;3.30;;;;;;;-1.78;77.41;96424.75;5040086;28;20871;-72
2022/03/03 05:05:51;;;;;;;5.80;4.00;;;;;;;-1.89;78.21;96434.13;5040442;28;20203;-74
2022/03/03 05:08:17;;;;;;;2.93;2.00;;;;;;;-1.89;76.82;96436.69;5041062;28;20201;-72
2022/03/03 05:10:43;;;;;;;4.90;3.47;;;;;;;-1.99;77.54;96429.66;5040890;28;20208;-72
2022/03/03 05:13:11;;;;;;;4.63;3.17;;;;;;;-1.75;77.12;96421.16;5039726;28;20221;-74
2022/03/03 05:15:38;;;;;;;2.27;2.07;;;;;;;-1.89;77.42;96412.66;5040563;28;20208;-72
2022/03/03 05:18:05;;;;;;;5.80;3.50;;;;;;;-2.00;77.87;96402.97;5042011;28;20213;-73
2022/03/03 05:20:31;;;;;;;5.83;4.00;;;;;;;-1.90;78.35;96396.31;5041298;28;20204;-74
2022/03/03 05:22:58;;;;;;;6.10;4.13;;;;;;;-1.79;78.02;96394.69;5039598;28;21224;-71
2022/03/03 05:25:24;;;;;;;4.63;3.10;;;;;;;-2.00;77.14;96395.22;5040899;28;20200;-73
2022/03/03 05:27:51;;;;;;;2.53;2.30;;;;;;;-1.94;76.57;96384.53;5039704;28;20204;-74
2022/03/03 05:30:19;;;;;;;12.20;3.10;;;;;;;-1.61;77.38;96387.50;5039747;28;20237;-73
2022/03/03 05:32:48;;;;;;;6.47;3.80;;;;;;;-1.73;78.03;96381.38;5039414;28;20229;-74
2022/03/03 05:35:15;;;;;;;3.40;3.03;;;;;;;-1.83;78.25;96385.50;5040138;28;20201;-73
2022/03/03 05:37:42;;;;;;;3.40;2.73;;;;;;;-1.59;78.63;96390.78;5039199;28;20236;-72
2022/03/03 05:40:10;;;;;;;3.70;3.37;;;;;;;-1.53;78.51;96390.41;5039496;28;20216;-72
2022/03/03 05:42:38;;;;;;;5.53;3.53;;;;;;;-1.42;78.91;96380.19;5034447;28;20701;-74
2022/03/03 05:45:05;;;;;;;4.93;3.97;;;;;;;-1.79;78.29;96386.94;5040275;28;20208;-74
2022/03/03 05:47:34;;;;;;;16.15;7.85;;;;;;;-1.86;79.22;96384.84;5040031;28;20447;-73
2022/03/03 05:50:01;;;;;;;2.73;2.53;;;;;;;-1.73;78.30;96388.31;5042214;28;20205;-73
2022/03/03 05:52:28;;;;;;;10.37;2.73;;;;;;;-1.73;78.27;96383.97;5040331;28;20235;-74
2022/03/03 05:54:55;;;;;;;4.50;3.83;;;;;;;-1.81;79.08;96382.81;5041387;28;20204;-73
2022/03/03 05:57:32;;;;;;;4.30;3.60;;;;;;;-1.75;80.25;96372.09;5042156;28;21152;-74
2022/03/03 06:00:05;;;;;;;11.80;3.47;;;;;;;-1.61;80.54;96375.41;5045089;28;20209;-73
2022/03/03 06:02:33;;;;;;;4.10;2.90;;;;;;;-1.77;77.58;96374.78;5041000;28;20499;-72
2022/03/03 06:04:59;;;;;;;4.33;2.63;;;;;;;-1.77;77.10;96372.19;5041758;28;20749;-72
2022/03/03 06:07:29;;;;;;;5.10;3.47;;;;;;;-1.71;77.90;96376.13;5041574;28;20207;-74
2022/03/03 06:09:57;;;;;;;8.03;3.67;;;;;;;-1.62;78.24;96383.25;5041041;28;20204;-73
2022/03/03 06:12:32;;;;;;;1.53;1.43;;;;;;;-1.50;77.99;96372.09;5040496;28;20224;-74
2022/03/03 06:15:04;;;;;;;5.20;3.70;;;;;;;-1.48;78.94;96371.06;5041405;28;20208;-74
2022/03/03 06:17:31;;;;;;;8.03;3.83;;;;;;;-1.44;78.58;96376.88;5041940;28;20232;-72
2022/03/03 06:20:00;;;;;;;3.43;2.37;;;;;;;-1.23;78.16;96372.84;5040932;28;20205;-73
2022/03/03 06:22:27;;;;;;;9.60;3.63;;;;;;;-1.64;77.21;96374.81;5040449;28;20221;-75
2022/03/03 06:24:54;;;;;;;4.37;3.00;;;;;;;-1.51;76.25;96373.06;5041561;28;20204;-74
2022/03/03 06:27:20;;;;;;;5.60;3.07;;;;;;;-1.45;76.95;96370.03;5040827;28;20652;-73
2022/03/03 06:29:47;;;;;;;2.47;2.27;;;;;;;-1.40;78.78;96360.25;5040928;28;20212;-73
2022/03/03 06:32:14;;;;;;;9.00;3.37;;;;;;;-1.44;79.80;96366.53;5041226;28;20225;-74
2022/03/03 06:34:40;;;;;;;22.10;3.57;;;;;;;-1.49;79.79;96366.03;5041132;28;20236;-73
2022/03/03 06:37:08;;;;;;;2.10;1.77;;;;;;;-1.26;79.06;96363.56;5040135;28;20219;-73
2022/03/03 06:39:35;;;;;;;3.77;3.30;;;;;;;-1.43;78.91;96361.25;5040160;28;20204;-71
2022/03/03 06:42:01;;;;;;;6.60;3.93;;;;;;;-1.36;79.75;96365.09;5040135;28;20319;-72
2022/03/03 06:44:28;;;;;;;4.20;2.87;;;;;;;-1.21;80.49;96358.88;5037761;28;20201;-74
2022/03/03 06:46:54;;;;;;;3.30;2.77;;;;;;;-1.05;80.41;96362.09;5040338;28;20204;-75
2022/03/03 06:49:21;;;;;;;7.27;4.17;;;;;;;-0.94;79.24;96357.00;5042270;28;20255;-74
2022/03/03 06:51:50;;;;;;;7.57;4.40;;;;;;;-0.71;79.09;96349.34;5041120;28;20285;-74
2022/03/03 06:54:19;;;;;;;6.43;4.50;;;;;;;-0.60;78.63;96352.81;5041414;28;20205;-74
2022/03/03 06:56:49;;;;;;;14.10;4.73;;;;;;;-0.56;78.60;96343.06;5042984;28;20316;-73
2022/03/03 06:59:17;;;;;;;10.17;4.47;;;;;;;-0.53;78.53;96345.44;5043498;28;20201;-72
2022/03/03 07:01:46;;;;;;;2.47;2.17;;;;;;;-0.63;79.38;96348.81;5044366;28;20701;-74
2022/03/03 07:04:14;;;;;;;4.13;2.63;;;;;;;-0.48;80.19;96351.94;5045605;28;20232;-72
2022/03/03 07:06:41;;;;;;;2.00;1.87;;;;;;;-0.39;79.08;96347.91;5043857;28;20212;-74
2022/03/03 07:09:08;;;;;;;7.20;3.97;;;;;;;-0.35;80.46;96347.56;5041041;28;20662;-74
2022/03/03 07:11:38;;;;;;;3.73;3.13;;;;;;;-0.11;80.92;96324.28;5042058;28;20232;-73
2022/03/03 07:14:05;;;;;;;3.83;2.73;;;;;;;-0.39;82.75;96322.00;5040002;28;20658;-71
2022/03/03 07:16:40;;;;;;;5.03;3.83;;;;;;;-0.07;83.37;96315.34;5040202;28;20228;-74
2022/03/03 07:19:14;;;;;;;6.00;3.17;;;;;;;0.14;83.46;96304.22;5042219;28;20410;-74
2022/03/03 07:21:50;;;;;;;7.03;3.60;;;;;;;0.09;83.09;96286.44;5042949;28;20221;-74
2022/03/03 07:24:25;;;;;;;7.63;3.07;;;;;;;0.01;83.78;96280.16;5038504;28;20205;-72
2022/03/03 07:26:58;;;;;;;6.50;4.07;;;;;;;0.22;83.83;96266.44;5038803;28;20223;-73
2022/03/03 07:29:27;;;;;;;6.00;3.00;;;;;;;0.12;84.01;96273.25;5039460;28;20198;-75
2022/03/03 07:31:56;;;;;;;9.57;3.83;;;;;;;0.27;83.92;96274.72;5038641;28;20232;-72
2022/03/03 07:34:28;;;;;;;7.23;4.27;;;;;;;0.46;83.16;96277.59;5038242;28;20208;-72
2022/03/03 07:36:58;;;;;;;6.70;4.13;;;;;;;0.68;82.13;96275.81;5039169;28;20224;-74
2022/03/03 07:39:30;;;;;;;9.67;4.97;;;;;;;0.74;81.75;96290.09;5039816;28;20209;-72
2022/03/03 07:41:59;;;;;;;5.13;3.03;;;;;;;0.90;80.56;96300.94;5037919;28;20337;-74
2022/03/03 07:44:25;;;;;;;6.03;4.53;;;;;;;0.85;81.19;96308.25;5040494;28;20236;-75
2022/03/03 07:46:53;;;;;;;10.80;6.13;;;;;;;0.97;80.93;96309.91;5041180;28;20212;-74
2022/03/03 07:49:21;;;;;;;7.57;3.17;;;;;;;1.18;80.49;96316.84;5040997;28;20288;-73
2022/03/03 07:51:48;;;;;;;5.87;3.57;;;;;;;1.06;81.16;96324.75;5041236;28;20238;-73
2022/03/03 07:54:14;;;;;;;5.07;3.20;;;;;;;0.78;82.52;96335.59;5039497;28;20215;-74
2022/03/03 07:56:44;;;;;;;6.43;3.30;;;;;;;0.80;85.00;96338.91;5040057;28;20236;-73
2022/03/03 07:59:16;;;;;;;6.63;3.30;;;;;;;0.92;85.14;96351.75;5039363;28;20614;-73
2022/03/03 08:01:46;;;;;;;7.43;4.17;;;;;;;1.29;83.48;96361.81;5038494;28;20229;-71
2022/03/03 08:04:15;;;;;;;5.97;3.43;;;;;;;0.97;83.43;96364.38;5038246;28;20658;-74
2022/03/03 08:06:44;;;;;;;7.30;4.27;;;;;;;1.36;81.62;96364.75;5038597;28;20205;-73
2022/03/03 08:09:11;;;;;;;7.53;3.77;;;;;;;1.20;82.84;96366.88;5039377;28;20208;-74
2022/03/03 08:11:41;;;;;;;6.30;4.67;;;;;;;1.11;83.00;96372.78;5038718;28;20316;-74
2022/03/03 08:14:08;;;;;;;7.37;4.00;;;;;;;1.09;82.36;96372.06;5037457;28;20732;-73
2022/03/03 08:16:38;;;;;;;8.33;5.40;;;;;;;1.59;80.21;96372.41;5038370;28;20684;-74
2022/03/03 08:19:05;;;;;;;6.20;3.40;;;;;;;1.44;80.55;96362.38;5037962;28;20213;-72
2022/03/03 08:21:32;;;;;;;10.53;4.13;;;;;;;1.60;78.34;96355.88;5039681;28;20645;-72
2022/03/03 08:24:00;;;;;;;9.90;3.97;;;;;;;2.05;75.46;96344.41;5038698;28;20339;-72
2022/03/03 08:26:28;;;;;;;7.73;4.00;;;;;;;1.95;75.94;96339.16;5041268;28;20229;-73
2022/03/03 08:28:55;;;;;;;12.30;4.93;;;;;;;2.25;74.46;96328.06;5042259;28;20210;-74
2022/03/03 08:31:32;;;;;;;7.73;4.40;;;;;;;2.59;74.03;96328.56;5043181;28;20208;-73
2022/03/03 08:34:10;;;;;;;5.60;4.33;;;;;;;2.47;74.45;96319.19;5043595;28;20202;-73
2022/03/03 08:36:45;;;;;;;5.87;4.57;;;;;;;2.60;74.20;96321.63;5043869;28;20209;-73
2022/03/03 08:39:15;;;;;;;9.70;5.10;;;;;;;2.65;74.20;96312.47;5043619;28;20200;-72
2022/03/03 08:41:43;;;;;;;11.80;5.13;;;;;;;2.68;75.19;96312.22;5042852;28;20255;-72
2022/03/03 08:44:11;;;;;;;10.13;4.80;;;;;;;2.91;74.05;96308.50;5041093;28;20209;-73
2022/03/03 08:46:40;;;;;;;8.07;4.33;;;;;;;2.91;72.68;96305.91;5043998;28;20220;-72
2022/03/03 08:49:10;;;;;;;16.07;4.33;;;;;;;3.02;72.32;96305.84;5044509;28;20221;-73
2022/03/03 08:51:38;;;;;;;13.73;6.63;;;;;;;3.16;72.46;96311.50;5043494;28;20315;-73
2022/03/03 08:54:05;;;;;;;16.40;6.50;;;;;;;3.40;71.99;96306.81;5042110;28;20208;-74
2022/03/03 08:56:32;;;;;;;5.07;4.30;;;;;;;3.28;70.66;96302.63;5042858;28;20208;-72
2022/03/03 08:58:59;;;;;;;9.67;4.57;;;;;;;3.12;71.92;96304.09;5040382;28;20213;-73
2022/03/03 09:01:26;;;;;;;8.87;4.03;;;;;;;3.35;71.03;96303.78;5039684;28;20580;-73
2022/03/03 09:03:52;;;;;;;5.63;4.10;;;;;;;3.33;71.50;96310.06;5041068;28;20215;-72
2022/03/03 09:06:20;;;;;;;8.43;5.53;;;;;;;3.72;70.30;96308.25;5040889;28;20204;-74
2022/03/03 09:08:47;;;;;;;7.70;4.93;;;;;;;3.77;70.51;96298.25;5042180;28;20451;-73
2022/03/03 09:11:15;;;;;;;19.13;5.13;;;;;;;3.52;70.53;96290.09;5041271;28;20205;-73
2022/03/03 09:13:41;;;;;;;12.63;5.97;;;;;;;3.38;70.79;96293.09;5041070;28;20558;-74
2022/03/03 09:16:08;;;;;;;11.70;6.07;;;;;;;3.53;70.73;96288.34;5041329;28;20205;-74
2022/03/03 09:18:35;;;;;;;11.77;5.60;;;;;;;3.72;70.36;96284.00;5042319;28;20220;-74
2022/03/03 09:21:01;;;;;;;8.73;5.20;;;;;;;3.83;68.39;96271.66;5042470;28;20707;-73
2022/03/03 09:23:29;;;;;;;8.50;5.17;;;;;;;4.13;67.25;96275.94;5039309;28;20459;-74
2022/03/03 09:25:55;;;;;;;13.80;6.40;;;;;;;4.15;67.53;96281.81;5039104;28;20205;-73
2022/03/03 09:28:22;;;;;;;9.40;6.07;;;;;;;4.00;68.77;96281.41;5038586;28;20194;-73
2022/03/03 09:30:49;;;;;;;6.43;3.33;;;;;;;4.03;67.35;96278.53;5039385;28;20554;-74
2022/03/03 09:33:15;;;;;;;11.60;5.10;;;;;;;4.22;67.08;96275.94;5039796;28;20971;-74
2022/03/03 09:35:42;;;;;;;15.27;6.20;;;;;;;4.49;66.61;96279.50;5041693;28;20208;-72
2022/03/03 09:38:08;;;;;;;11.23;5.67;;;;;;;4.70;65.43;96276.69;5041009;28;20229;-74
2022/03/03 09:40:36;;;;;;;12.80;5.90;;;;;;;5.07;64.03;96276.59;5040218;28;20201;-74
2022/03/03 09:43:05;;;;;;;10.90;5.97;;;;;;;5.03;64.94;96271.81;5035533;28;20235;-74
2022/03/03 09:45:33;;;;;;;11.93;5.90;;;;;;;5.21;64.64;96265.69;5039726;28;20229;-73
2022/03/03 09:48:02;;;;;;;11.70;5.33;;;;;;;5.38;63.58;96269.31;5039212;28;20597;-74
2022/03/03 09:50:31;;;;;;;12.50;5.37;;;;;;;5.52;62.69;96267.88;5039091;28;20607;-74
2022/03/03 09:52:58;;;;;;;7.07;3.77;;;;;;;5.04;65.56;96279.50;5038976;28;20304;-74
2022/03/03 09:55:25;;;;;;;9.13;4.87;;;;;;;5.09;65.08;96273.81;5039903;28;20208;-73
2022/03/03 09:57:53;;;;;;;17.17;6.37;;;;;;;5.20;64.34;96282.31;5038945;28;20221;-72
2022/03/03 10:00:20;;;;;;;13.13;5.90;;;;;;;5.47;63.37;96269.25;5039992;28;20221;-74
2022/03/03 10:03:03;;;;;;;14.07;5.30;;;;;;;5.75;64.84;96261.28;5039430;28;20846;-74
2022/03/03 10:05:35;;;;;;;8.70;5.53;;;;;;;6.03;63.03;96267.31;5039966;28;20262;-74
2022/03/03 10:08:03;;;;;;;15.67;6.43;;;;;;;6.20;64.62;96262.91;5039832;28;20198;-73
2022/03/03 10:10:30;;;;;;;14.53;5.63;;;;;;;6.32;62.29;96266.91;5039155;28;20208;-74
2022/03/03 10:12:58;;;;;;;14.87;5.37;;;;;;;6.84;62.24;96268.66;5039367;28;20327;-73
2022/03/03 10:15:27;;;;;;;17.97;7.23;;;;;;;6.80;61.66;96262.06;5039402;28;20205;-73
2022/03/03 10:18:00;;;;;;;10.60;5.73;;;;;;;6.95;62.68;96268.38;5039417;28;20867;-73
2022/03/03 10:20:28;;;;;;;13.33;5.67;;;;;;;6.74;61.78;96265.28;5039599;28;20205;-74
2022/03/03 10:22:58;;;;;;;14.77;6.43;;;;;;;6.94;61.75;96264.13;5039696;28;20225;-73
2022/03/03 10:25:30;;;;;;;11.63;4.83;;;;;;;7.26;61.04;96263.31;5039766;28;20205;-74
2022/03/03 10:28:06;;;;;;;18.00;6.43;;;;;;;7.24;61.85;96258.41;5039445;28;20491;-73
2022/03/03 10:30:51;;;;;;;10.87;5.47;;;;;;;7.41;60.09;96251.28;5040075;28;20205;-74
2022/03/03 10:33:20;;;;;;;11.13;5.60;;;;;;;7.25;59.67;96254.81;5038888;28;20604;-72
2022/03/03 10:35:59;;;;;;;14.30;5.60;;;;;;;7.76;59.15;96245.81;5039461;28;20205;-73
2022/03/03 10:38:26;;;;;;;7.17;4.90;;;;;;;7.35;58.90;96246.66;5039478;28;20228;-74
2022/03/03 10:40:52;;;;;;;15.60;5.33;;;;;;;7.35;57.94;96249.28;5039219;28;20205;-73
2022/03/03 10:43:20;;;;;;;15.43;6.10;;;;;;;7.47;56.96;96241.94;5035474;28;20228;-73
2022/03/03 10:45:57;;;;;;;7.47;4.13;;;;;;;8.09;54.51;96229.16;5038656;28;20212;-74
2022/03/03 10:48:25;;;;;;;17.47;6.30;;;;;;;7.68;56.38;96235.31;5039522;28;20220;-74
2022/03/03 10:50:54;;;;;;;12.50;5.13;;;;;;;8.35;53.12;96233.34;5040582;28;20205;-75
2022/03/03 10:53:22;;;;;;;14.10;6.40;;;;;;;8.59;53.14;96228.06;5042399;28;20555;-73
2022/03/03 10:56:01;;;;;;;12.27;5.07;;;;;;;9.02;52.21;96225.06;5043487;28;20644;-72
2022/03/03 10:58:50;;;;;;;13.07;6.33;;;;;;;8.96;50.71;96223.94;5044309;28;20228;-74
2022/03/03 11:01:19;;;;;;;13.40;5.17;;;;;;;8.94;51.96;96231.16;5041741;28;20212;-74
2022/03/03 11:03:49;;;;;;;17.73;5.93;;;;;;;8.74;50.05;96219.34;5040963;28;20212;-73
2022/03/03 11:06:17;;;;;;;10.07;4.97;;;;;;;8.60;52.46;96220.06;5041365;28;20238;-72
2022/03/03 11:08:44;;;;;;;14.00;5.33;;;;;;;8.73;51.83;96223.00;5041492;28;20212;-74
2022/03/03 11:11:10;;;;;;;12.13;6.23;;;;;;;8.77;51.92;96205.91;5041894;28;20901;-73
2022/03/03 11:13:39;;;;;;;15.90;6.30;;;;;;;8.92;51.56;96195.53;5041497;28;20201;-73
2022/03/03 11:16:07;;;;;;;14.10;5.93;;;;;;;8.80;52.07;96207.38;5042458;28;20684;-72
2022/03/03 11:18:33;;;;;;;13.40;5.43;;;;;;;9.13;51.18;96188.72;5042653;28;20623;-74
2022/03/03 11:21:00;;;;;;;19.40;6.47;;;;;;;9.54;49.83;96184.94;5041610;28;20201;-73
2022/03/03 11:23:38;;;;;;;14.40;6.00;;;;;;;9.93;48.00;96184.72;5038667;28;20225;-72
2022/03/03 11:26:05;;;;;;;13.70;4.80;;;;;;;10.03;47.42;96174.81;5039585;28;20220;-74
2022/03/03 11:28:35;;;;;;;16.03;6.60;;;;;;;9.99;45.57;96163.00;5039420;28;20212;-74
2022/03/03 11:31:26;;;;;;;11.50;5.23;;;;;;;10.04;44.78;96168.56;5038651;28;20209;-74
2022/03/03 11:34:23;;;;;;;13.83;5.57;;;;;;;10.41;44.13;96155.41;5038333;28;20205;-74
2022/03/03 11:36:50;;;;;;;9.53;5.03;;;;;;;10.20;44.03;96150.00;5037103;28;20581;-74
2022/03/03 11:39:37;;;;;;;11.20;5.10;;;;;;;10.83;41.92;96138.03;5038199;28;20236;-73